sensor_id;sensor_type;location;lat;lon;timestamp;temperature;humidity
15241;DHT22;7723;52.170;9.978;2023-02-28T00:01:10;-0.20;99.90
15241;DHT22;7723;52.170;9.978;2023-02-28T00:03:37;-0.20;99.90
15241;DHT22;7723;52.170;9.978;2023-02-28T00:06:06;-0.30;99.90
15241;DHT22;7723;52.170;9.978;2023-02-28T00:08:35;-0.30;99.90
15241;DHT22;7723;52.170;9.978;2023-02-28T00:11:02;-0.30;99.90
15241;DHT22;7723;52.170;9.978;2023-02-28T00:13:31;-0.30;99.90
15241;DHT22;7723;52.170;9.978;2023-02-28T00:16:00;-0.30;99.90
15241;DHT22;7723;52.170;9.978;2023-02-28T00:18:27;-0.40;99.90
15241;DHT22;7723;52.170;9.978;2023-02-28T00:20:54;-0.50;99.90
15241;DHT22;7723;52.170;9.978;2023-02-28T00:23:21;-0.60;99.90
15241;DHT22;7723;52.170;9.978;2023-02-28T00:25:49;-0.80;99.90
15241;DHT22;7723;52.170;9.978;2023-02-28T00:28:16;-0.90;99.90
15241;DHT22;7723;52.170;9.978;2023-02-28T00:30:45;-0.90;99.90
15241;DHT22;7723;52.170;9.978;2023-02-28T00:33:13;-1.00;99.90
15241;DHT22;7723;52.170;9.978;2023-02-28T00:35:40;-1.10;99.90
15241;DHT22;7723;52.170;9.978;2023-02-28T00:38:07;-1.10;99.90
15241;DHT22;7723;52.170;9.978;2023-02-28T00:40:34;-1.20;99.90
15241;DHT22;7723;52.170;9.978;2023-02-28T00:43:02;-1.20;99.90
15241;DHT22;7723;52.170;9.978;2023-02-28T00:45:29;-1.30;99.90
15241;DHT22;7723;52.170;9.978;2023-02-28T00:47:58;-1.40;99.90
15241;DHT22;7723;52.170;9.978;2023-02-28T00:50:25;-1.50;99.90
15241;DHT22;7723;52.170;9.978;2023-02-28T00:52:52;-1.70;99.90
15241;DHT22;7723;52.170;9.978;2023-02-28T00:55:19;-1.70;99.90
15241;DHT22;7723;52.170;9.978;2023-02-28T00:57:46;-1.70;99.90
15241;DHT22;7723;52.170;9.978;2023-02-28T01:00:15;-1.70;99.90
15241;DHT22;7723;52.170;9.978;2023-02-28T01:02:42;-1.70;99.90
15241;DHT22;7723;52.170;9.978;2023-02-28T01:05:10;-1.80;99.90
15241;DHT22;7723;52.170;9.978;2023-02-28T01:07:38;-1.90;99.90
15241;DHT22;7723;52.170;9.978;2023-02-28T01:10:05;-2.00;99.90
15241;DHT22;7723;52.170;9.978;2023-02-28T01:12:33;-2.00;99.90
15241;DHT22;7723;52.170;9.978;2023-02-28T01:15:00;-2.00;99.90
15241;DHT22;7723;52.170;9.978;2023-02-28T01:17:27;-2.10;99.90
15241;DHT22;7723;52.170;9.978;2023-02-28T01:19:54;-2.10;99.90
15241;DHT22;7723;52.170;9.978;2023-02-28T01:22:23;-2.20;99.90
15241;DHT22;7723;52.170;9.978;2023-02-28T01:24:50;-2.20;99.90
15241;DHT22;7723;52.170;9.978;2023-02-28T01:27:18;-2.20;99.90
15241;DHT22;7723;52.170;9.978;2023-02-28T01:29:45;-2.30;99.90
15241;DHT22;7723;52.170;9.978;2023-02-28T01:32:12;-2.30;99.90
15241;DHT22;7723;52.170;9.978;2023-02-28T01:34:39;-2.30;99.90
15241;DHT22;7723;52.170;9.978;2023-02-28T01:37:06;-2.40;99.90
15241;DHT22;7723;52.170;9.978;2023-02-28T01:39:35;-2.40;99.90
15241;DHT22;7723;52.170;9.978;2023-02-28T01:42:02;-2.40;99.90
15241;DHT22;7723;52.170;9.978;2023-02-28T01:44:59;-2.30;99.90
15241;DHT22;7723;52.170;9.978;2023-02-28T01:47:30;-2.30;99.90
15241;DHT22;7723;52.170;9.978;2023-02-28T01:50:01;-2.50;99.90
15241;DHT22;7723;52.170;9.978;2023-02-28T01:52:29;-2.60;99.90
15241;DHT22;7723;52.170;9.978;2023-02-28T01:54:59;-2.60;99.90
15241;DHT22;7723;52.170;9.978;2023-02-28T01:57:30;-2.70;99.90
15241;DHT22;7723;52.170;9.978;2023-02-28T02:00:06;-2.70;99.90
15241;DHT22;7723;52.170;9.978;2023-02-28T02:02:36;-2.60;99.90
15241;DHT22;7723;52.170;9.978;2023-02-28T02:05:07;-2.60;99.90
15241;DHT22;7723;52.170;9.978;2023-02-28T02:07:36;-2.60;99.90
15241;DHT22;7723;52.170;9.978;2023-02-28T02:10:10;-2.70;99.90
15241;DHT22;7723;52.170;9.978;2023-02-28T02:13:00;-2.80;99.90
15241;DHT22;7723;52.170;9.978;2023-02-28T02:15:33;-2.80;99.90
15241;DHT22;7723;52.170;9.978;2023-02-28T02:18:06;-2.70;99.90
15241;DHT22;7723;52.170;9.978;2023-02-28T02:21:06;-2.80;99.90
15241;DHT22;7723;52.170;9.978;2023-02-28T02:24:10;-2.40;99.90
15241;DHT22;7723;52.170;9.978;2023-02-28T02:27:03;-2.70;99.90
15241;DHT22;7723;52.170;9.978;2023-02-28T02:29:52;-2.60;99.90
15241;DHT22;7723;52.170;9.978;2023-02-28T02:32:44;-2.80;99.90
15241;DHT22;7723;52.170;9.978;2023-02-28T02:35:21;-2.90;99.90
15241;DHT22;7723;52.170;9.978;2023-02-28T02:37:53;-2.90;99.90
15241;DHT22;7723;52.170;9.978;2023-02-28T02:40:24;-2.90;99.90
15241;DHT22;7723;52.170;9.978;2023-02-28T02:42:56;-2.90;99.90
15241;DHT22;7723;52.170;9.978;2023-02-28T02:45:31;-2.90;99.90
15241;DHT22;7723;52.170;9.978;2023-02-28T02:48:03;-2.90;99.90
15241;DHT22;7723;52.170;9.978;2023-02-28T02:50:37;-2.90;99.90
15241;DHT22;7723;52.170;9.978;2023-02-28T02:53:06;-2.90;99.90
15241;DHT22;7723;52.170;9.978;2023-02-28T02:55:38;-3.00;99.90
15241;DHT22;7723;52.170;9.978;2023-02-28T02:58:09;-3.10;99.90
15241;DHT22;7723;52.170;9.978;2023-02-28T03:00:39;-3.20;99.90
15241;DHT22;7723;52.170;9.978;2023-02-28T03:03:10;-3.20;99.90
15241;DHT22;7723;52.170;9.978;2023-02-28T03:05:44;-3.30;99.90
15241;DHT22;7723;52.170;9.978;2023-02-28T03:08:12;-3.20;99.90
15241;DHT22;7723;52.170;9.978;2023-02-28T03:10:41;-3.30;99.90
15241;DHT22;7723;52.170;9.978;2023-02-28T03:13:36;-3.10;99.90
15241;DHT22;7723;52.170;9.978;2023-02-28T03:16:29;-3.00;99.90
15241;DHT22;7723;52.170;9.978;2023-02-28T03:19:06;-3.00;99.90
15241;DHT22;7723;52.170;9.978;2023-02-28T03:21:42;-2.90;99.90
15241;DHT22;7723;52.170;9.978;2023-02-28T03:24:13;-2.90;99.90
15241;DHT22;7723;52.170;9.978;2023-02-28T03:26:45;-2.80;99.90
15241;DHT22;7723;52.170;9.978;2023-02-28T03:29:21;-2.80;99.90
15241;DHT22;7723;52.170;9.978;2023-02-28T03:31:52;-2.90;99.90
15241;DHT22;7723;52.170;9.978;2023-02-28T03:34:25;-3.10;99.90
15241;DHT22;7723;52.170;9.978;2023-02-28T03:37:00;-3.20;99.90
15241;DHT22;7723;52.170;9.978;2023-02-28T03:39:35;-3.10;99.90
15241;DHT22;7723;52.170;9.978;2023-02-28T03:42:06;-3.10;99.90
15241;DHT22;7723;52.170;9.978;2023-02-28T03:44:39;-3.10;99.90
15241;DHT22;7723;52.170;9.978;2023-02-28T03:47:10;-3.20;99.90
15241;DHT22;7723;52.170;9.978;2023-02-28T03:49:41;-3.10;99.90
15241;DHT22;7723;52.170;9.978;2023-02-28T03:52:11;-3.10;99.90
15241;DHT22;7723;52.170;9.978;2023-02-28T03:54:43;-3.10;99.90
15241;DHT22;7723;52.170;9.978;2023-02-28T03:57:17;-3.10;99.90
15241;DHT22;7723;52.170;9.978;2023-02-28T03:59:49;-3.20;99.90
15241;DHT22;7723;52.170;9.978;2023-02-28T04:02:19;-3.20;99.90
15241;DHT22;7723;52.170;9.978;2023-02-28T04:04:46;-3.20;99.90
15241;DHT22;7723;52.170;9.978;2023-02-28T04:07:17;-3.30;99.90
15241;DHT22;7723;52.170;9.978;2023-02-28T04:09:44;-3.30;99.90
15241;DHT22;7723;52.170;9.978;2023-02-28T04:12:11;-3.30;99.90
15241;DHT22;7723;52.170;9.978;2023-02-28T04:14:38;-3.20;99.90
15241;DHT22;7723;52.170;9.978;2023-02-28T04:17:05;-3.20;99.90
15241;DHT22;7723;52.170;9.978;2023-02-28T04:19:32;-3.20;99.90
15241;DHT22;7723;52.170;9.978;2023-02-28T04:22:00;-3.10;99.90
15241;DHT22;7723;52.170;9.978;2023-02-28T04:24:28;-3.10;99.90
15241;DHT22;7723;52.170;9.978;2023-02-28T04:26:57;-3.00;99.90
15241;DHT22;7723;52.170;9.978;2023-02-28T04:29:27;-2.90;99.90
15241;DHT22;7723;52.170;9.978;2023-02-28T04:31:55;-2.80;99.90
15241;DHT22;7723;52.170;9.978;2023-02-28T04:34:23;-2.80;99.90
15241;DHT22;7723;52.170;9.978;2023-02-28T04:36:51;-2.80;99.90
15241;DHT22;7723;52.170;9.978;2023-02-28T04:39:20;-2.80;99.90
15241;DHT22;7723;52.170;9.978;2023-02-28T04:41:48;-2.80;99.90
15241;DHT22;7723;52.170;9.978;2023-02-28T04:44:16;-2.70;99.90
15241;DHT22;7723;52.170;9.978;2023-02-28T04:46:43;-2.60;99.90
15241;DHT22;7723;52.170;9.978;2023-02-28T04:49:11;-2.70;99.90
15241;DHT22;7723;52.170;9.978;2023-02-28T04:51:39;-2.50;99.90
15241;DHT22;7723;52.170;9.978;2023-02-28T04:54:06;-1.10;99.90
15241;DHT22;7723;52.170;9.978;2023-02-28T04:56:34;-2.30;99.90
15241;DHT22;7723;52.170;9.978;2023-02-28T04:59:02;-2.30;99.90
15241;DHT22;7723;52.170;9.978;2023-02-28T05:01:31;-2.30;99.90
15241;DHT22;7723;52.170;9.978;2023-02-28T05:04:01;-2.20;99.90
15241;DHT22;7723;52.170;9.978;2023-02-28T05:06:29;-2.30;99.90
15241;DHT22;7723;52.170;9.978;2023-02-28T05:08:57;-2.30;99.90
15241;DHT22;7723;52.170;9.978;2023-02-28T05:11:27;-2.20;99.90
15241;DHT22;7723;52.170;9.978;2023-02-28T05:13:55;-2.20;99.90
15241;DHT22;7723;52.170;9.978;2023-02-28T05:16:23;-2.30;99.90
15241;DHT22;7723;52.170;9.978;2023-02-28T05:18:50;-2.40;99.90
15241;DHT22;7723;52.170;9.978;2023-02-28T05:21:27;-2.30;99.90
15241;DHT22;7723;52.170;9.978;2023-02-28T05:23:56;-2.40;99.90
15241;DHT22;7723;52.170;9.978;2023-02-28T05:26:24;-2.50;99.90
15241;DHT22;7723;52.170;9.978;2023-02-28T05:28:51;-2.60;99.90
15241;DHT22;7723;52.170;9.978;2023-02-28T05:31:19;-2.70;99.90
15241;DHT22;7723;52.170;9.978;2023-02-28T05:33:47;-2.80;99.90
15241;DHT22;7723;52.170;9.978;2023-02-28T05:36:14;-2.80;99.90
15241;DHT22;7723;52.170;9.978;2023-02-28T05:38:41;-2.80;99.90
15241;DHT22;7723;52.170;9.978;2023-02-28T05:41:10;-2.90;99.90
15241;DHT22;7723;52.170;9.978;2023-02-28T05:43:37;-2.90;99.90
15241;DHT22;7723;52.170;9.978;2023-02-28T05:46:05;-3.00;99.90
15241;DHT22;7723;52.170;9.978;2023-02-28T05:48:34;-3.20;99.90
15241;DHT22;7723;52.170;9.978;2023-02-28T05:51:03;-3.10;99.90
15241;DHT22;7723;52.170;9.978;2023-02-28T05:53:32;-3.20;99.90
15241;DHT22;7723;52.170;9.978;2023-02-28T05:55:59;-3.20;99.90
15241;DHT22;7723;52.170;9.978;2023-02-28T05:58:26;-3.20;99.90
15241;DHT22;7723;52.170;9.978;2023-02-28T06:00:56;-3.40;99.90
15241;DHT22;7723;52.170;9.978;2023-02-28T06:03:24;-3.40;99.90
15241;DHT22;7723;52.170;9.978;2023-02-28T06:05:51;-3.40;99.90
15241;DHT22;7723;52.170;9.978;2023-02-28T06:08:20;-3.40;99.90
15241;DHT22;7723;52.170;9.978;2023-02-28T06:10:47;-3.50;99.90
15241;DHT22;7723;52.170;9.978;2023-02-28T06:13:14;-3.50;99.90
15241;DHT22;7723;52.170;9.978;2023-02-28T06:15:41;-3.50;99.90
15241;DHT22;7723;52.170;9.978;2023-02-28T06:18:08;-3.40;99.90
15241;DHT22;7723;52.170;9.978;2023-02-28T06:20:36;-3.40;99.90
15241;DHT22;7723;52.170;9.978;2023-02-28T06:23:03;-3.40;99.90
15241;DHT22;7723;52.170;9.978;2023-02-28T06:25:31;-3.30;99.90
15241;DHT22;7723;52.170;9.978;2023-02-28T06:27:58;-3.30;99.90
15241;DHT22;7723;52.170;9.978;2023-02-28T06:30:26;-3.40;99.90
15241;DHT22;7723;52.170;9.978;2023-02-28T06:32:56;-3.20;99.90
15241;DHT22;7723;52.170;9.978;2023-02-28T06:35:23;-3.20;99.90
15241;DHT22;7723;52.170;9.978;2023-02-28T06:37:52;-3.10;99.90
15241;DHT22;7723;52.170;9.978;2023-02-28T06:40:19;-3.00;99.90
15241;DHT22;7723;52.170;9.978;2023-02-28T06:42:47;-2.70;99.90
15241;DHT22;7723;52.170;9.978;2023-02-28T06:45:15;-2.80;99.90
15241;DHT22;7723;52.170;9.978;2023-02-28T06:47:42;-2.70;99.90
15241;DHT22;7723;52.170;9.978;2023-02-28T06:50:12;-2.60;99.90
15241;DHT22;7723;52.170;9.978;2023-02-28T06:52:39;-2.50;99.90
15241;DHT22;7723;52.170;9.978;2023-02-28T06:55:07;-2.40;99.90
15241;DHT22;7723;52.170;9.978;2023-02-28T06:57:35;-2.30;99.90
15241;DHT22;7723;52.170;9.978;2023-02-28T07:00:07;-2.20;99.90
15241;DHT22;7723;52.170;9.978;2023-02-28T07:02:34;-2.00;99.90
15241;DHT22;7723;52.170;9.978;2023-02-28T07:05:01;-1.90;99.90
15241;DHT22;7723;52.170;9.978;2023-02-28T07:07:29;-1.70;99.90
15241;DHT22;7723;52.170;9.978;2023-02-28T07:09:56;-1.60;99.90
15241;DHT22;7723;52.170;9.978;2023-02-28T07:12:23;-1.60;99.90
15241;DHT22;7723;52.170;9.978;2023-02-28T07:14:50;-1.30;99.90
15241;DHT22;7723;52.170;9.978;2023-02-28T07:17:19;-1.00;99.90
15241;DHT22;7723;52.170;9.978;2023-02-28T07:19:46;-0.70;99.90
15241;DHT22;7723;52.170;9.978;2023-02-28T07:22:13;-0.30;99.90
15241;DHT22;7723;52.170;9.978;2023-02-28T07:24:40;-0.10;99.90
15241;DHT22;7723;52.170;9.978;2023-02-28T07:27:07;-0.10;99.90
15241;DHT22;7723;52.170;9.978;2023-02-28T07:29:34;-0.10;99.90
15241;DHT22;7723;52.170;9.978;2023-02-28T07:32:01;-0.20;99.90
15241;DHT22;7723;52.170;9.978;2023-02-28T07:34:30;-0.20;99.90
15241;DHT22;7723;52.170;9.978;2023-02-28T07:36:57;-0.30;99.90
15241;DHT22;7723;52.170;9.978;2023-02-28T07:39:25;-0.40;99.90
15241;DHT22;7723;52.170;9.978;2023-02-28T07:41:52;-0.60;99.90
15241;DHT22;7723;52.170;9.978;2023-02-28T07:44:19;-0.60;99.90
15241;DHT22;7723;52.170;9.978;2023-02-28T07:46:46;-0.50;99.90
15241;DHT22;7723;52.170;9.978;2023-02-28T07:49:14;-0.40;99.90
15241;DHT22;7723;52.170;9.978;2023-02-28T07:51:42;-0.40;99.90
15241;DHT22;7723;52.170;9.978;2023-02-28T07:54:09;-0.40;99.90
15241;DHT22;7723;52.170;9.978;2023-02-28T07:56:36;-0.20;99.90
15241;DHT22;7723;52.170;9.978;2023-02-28T07:59:03;0.50;99.90
15241;DHT22;7723;52.170;9.978;2023-02-28T08:01:31;1.20;99.90
15241;DHT22;7723;52.170;9.978;2023-02-28T08:03:58;1.80;99.90
15241;DHT22;7723;52.170;9.978;2023-02-28T08:06:25;2.40;99.90
15241;DHT22;7723;52.170;9.978;2023-02-28T08:08:54;3.10;99.90
15241;DHT22;7723;52.170;9.978;2023-02-28T08:11:22;3.80;99.90
15241;DHT22;7723;52.170;9.978;2023-02-28T08:13:49;4.50;99.90
15241;DHT22;7723;52.170;9.978;2023-02-28T08:16:17;5.60;99.90
15241;DHT22;7723;52.170;9.978;2023-02-28T08:18:48;6.20;99.90
15241;DHT22;7723;52.170;9.978;2023-02-28T08:21:15;6.40;99.90
15241;DHT22;7723;52.170;9.978;2023-02-28T08:23:42;6.70;99.90
15241;DHT22;7723;52.170;9.978;2023-02-28T08:26:10;7.10;99.90
15241;DHT22;7723;52.170;9.978;2023-02-28T08:28:38;6.30;79.10
15241;DHT22;7723;52.170;9.978;2023-02-28T08:31:09;7.10;46.60
15241;DHT22;7723;52.170;9.978;2023-02-28T08:33:37;6.60;6.50
15241;DHT22;7723;52.170;9.978;2023-02-28T08:36:06;6.60;1.00
15241;DHT22;7723;52.170;9.978;2023-02-28T08:38:34;7.00;1.00
15241;DHT22;7723;52.170;9.978;2023-02-28T08:41:03;7.20;1.00
15241;DHT22;7723;52.170;9.978;2023-02-28T08:43:33;7.80;1.00
15241;DHT22;7723;52.170;9.978;2023-02-28T08:46:00;8.20;1.00
15241;DHT22;7723;52.170;9.978;2023-02-28T08:48:29;7.90;1.00
15241;DHT22;7723;52.170;9.978;2023-02-28T08:50:57;6.80;1.00
15241;DHT22;7723;52.170;9.978;2023-02-28T08:53:24;7.10;1.00
15241;DHT22;7723;52.170;9.978;2023-02-28T08:55:58;7.70;1.00
15241;DHT22;7723;52.170;9.978;2023-02-28T08:58:26;7.40;1.00
15241;DHT22;7723;52.170;9.978;2023-02-28T09:00:55;7.40;1.00
15241;DHT22;7723;52.170;9.978;2023-02-28T09:03:23;7.60;1.00
15241;DHT22;7723;52.170;9.978;2023-02-28T09:05:55;8.30;1.00
15241;DHT22;7723;52.170;9.978;2023-02-28T09:08:23;8.10;1.00
15241;DHT22;7723;52.170;9.978;2023-02-28T09:10:50;7.30;1.00
15241;DHT22;7723;52.170;9.978;2023-02-28T09:13:18;6.10;1.00
15241;DHT22;7723;52.170;9.978;2023-02-28T09:15:46;5.60;1.00
15241;DHT22;7723;52.170;9.978;2023-02-28T09:18:14;5.20;1.00
15241;DHT22;7723;52.170;9.978;2023-02-28T09:20:42;4.70;1.00
15241;DHT22;7723;52.170;9.978;2023-02-28T09:23:11;4.80;1.00
15241;DHT22;7723;52.170;9.978;2023-02-28T09:25:45;5.40;1.00
15241;DHT22;7723;52.170;9.978;2023-02-28T09:28:12;5.30;1.00
15241;DHT22;7723;52.170;9.978;2023-02-28T09:30:41;5.90;1.00
15241;DHT22;7723;52.170;9.978;2023-02-28T09:33:08;7.30;1.00
15241;DHT22;7723;52.170;9.978;2023-02-28T09:35:37;6.60;1.00
15241;DHT22;7723;52.170;9.978;2023-02-28T09:38:04;7.20;1.00
15241;DHT22;7723;52.170;9.978;2023-02-28T09:40:35;7.40;1.00
15241;DHT22;7723;52.170;9.978;2023-02-28T09:43:03;6.70;1.00
15241;DHT22;7723;52.170;9.978;2023-02-28T09:45:34;6.40;1.00
15241;DHT22;7723;52.170;9.978;2023-02-28T09:48:04;6.30;1.00
15241;DHT22;7723;52.170;9.978;2023-02-28T09:50:38;6.70;1.00
15241;DHT22;7723;52.170;9.978;2023-02-28T09:53:15;7.20;1.00
15241;DHT22;7723;52.170;9.978;2023-02-28T09:55:48;5.90;1.00
15241;DHT22;7723;52.170;9.978;2023-02-28T09:58:22;6.80;1.00
15241;DHT22;7723;52.170;9.978;2023-02-28T10:00:56;7.20;1.00
15241;DHT22;7723;52.170;9.978;2023-02-28T10:03:30;7.30;1.00
15241;DHT22;7723;52.170;9.978;2023-02-28T10:06:07;6.50;1.00
15241;DHT22;7723;52.170;9.978;2023-02-28T10:08:45;6.90;1.00
15241;DHT22;7723;52.170;9.978;2023-02-28T10:11:16;6.20;1.00
15241;DHT22;7723;52.170;9.978;2023-02-28T10:13:51;6.80;1.00
15241;DHT22;7723;52.170;9.978;2023-02-28T10:16:26;6.30;1.00
15241;DHT22;7723;52.170;9.978;2023-02-28T10:19:03;6.10;1.00
15241;DHT22;7723;52.170;9.978;2023-02-28T10:21:35;6.50;1.00
15241;DHT22;7723;52.170;9.978;2023-02-28T10:24:11;5.60;1.00
15241;DHT22;7723;52.170;9.978;2023-02-28T10:26:42;4.90;1.00
15241;DHT22;7723;52.170;9.978;2023-02-28T10:29:11;5.80;1.00
15241;DHT22;7723;52.170;9.978;2023-02-28T10:31:38;5.80;1.00
15241;DHT22;7723;52.170;9.978;2023-02-28T10:34:07;5.20;1.00
15241;DHT22;7723;52.170;9.978;2023-02-28T10:36:36;5.30;1.00
15241;DHT22;7723;52.170;9.978;2023-02-28T10:39:36;4.70;1.00
15241;DHT22;7723;52.170;9.978;2023-02-28T10:42:04;4.70;1.00
15241;DHT22;7723;52.170;9.978;2023-02-28T10:44:32;4.80;1.00
15241;DHT22;7723;52.170;9.978;2023-02-28T10:46:59;4.70;1.00
15241;DHT22;7723;52.170;9.978;2023-02-28T10:49:28;4.70;1.00
15241;DHT22;7723;52.170;9.978;2023-02-28T10:51:59;4.80;1.00
15241;DHT22;7723;52.170;9.978;2023-02-28T10:54:30;4.60;1.00
15241;DHT22;7723;52.170;9.978;2023-02-28T10:57:12;4.40;1.00
15241;DHT22;7723;52.170;9.978;2023-02-28T10:59:41;4.20;1.00
15241;DHT22;7723;52.170;9.978;2023-02-28T11:02:32;4.20;1.00
15241;DHT22;7723;52.170;9.978;2023-02-28T11:04:59;4.30;1.00
15241;DHT22;7723;52.170;9.978;2023-02-28T11:07:28;4.40;1.00
15241;DHT22;7723;52.170;9.978;2023-02-28T11:09:56;4.70;1.00
15241;DHT22;7723;52.170;9.978;2023-02-28T11:12:28;4.90;1.00
15241;DHT22;7723;52.170;9.978;2023-02-28T11:14:57;5.00;1.00
15241;DHT22;7723;52.170;9.978;2023-02-28T11:17:27;5.00;1.00
15241;DHT22;7723;52.170;9.978;2023-02-28T11:19:57;5.20;1.00
15241;DHT22;7723;52.170;9.978;2023-02-28T11:22:26;4.70;1.00
15241;DHT22;7723;52.170;9.978;2023-02-28T11:24:59;4.80;1.00
15241;DHT22;7723;52.170;9.978;2023-02-28T11:27:48;5.00;1.00
15241;DHT22;7723;52.170;9.978;2023-02-28T11:30:27;5.10;1.00
15241;DHT22;7723;52.170;9.978;2023-02-28T11:32:55;5.40;1.00
15241;DHT22;7723;52.170;9.978;2023-02-28T11:35:26;5.20;1.00
15241;DHT22;7723;52.170;9.978;2023-02-28T11:37:53;5.10;1.00
15241;DHT22;7723;52.170;9.978;2023-02-28T11:40:29;5.50;1.00
15241;DHT22;7723;52.170;9.978;2023-02-28T11:43:05;5.50;1.00
15241;DHT22;7723;52.170;9.978;2023-02-28T11:45:49;5.30;1.00
15241;DHT22;7723;52.170;9.978;2023-02-28T11:48:24;5.00;1.00
15241;DHT22;7723;52.170;9.978;2023-02-28T11:51:07;5.20;1.00
15241;DHT22;7723;52.170;9.978;2023-02-28T11:54:05;5.30;1.00
15241;DHT22;7723;52.170;9.978;2023-02-28T11:56:38;5.10;1.00
15241;DHT22;7723;52.170;9.978;2023-02-28T11:59:26;5.00;1.00
15241;DHT22;7723;52.170;9.978;2023-02-28T12:02:09;5.10;1.00
15241;DHT22;7723;52.170;9.978;2023-02-28T12:04:51;4.70;1.00
15241;DHT22;7723;52.170;9.978;2023-02-28T12:07:25;4.60;1.00
15241;DHT22;7723;52.170;9.978;2023-02-28T12:10:01;4.50;1.00
15241;DHT22;7723;52.170;9.978;2023-02-28T12:12:41;4.30;1.00
15241;DHT22;7723;52.170;9.978;2023-02-28T12:15:24;4.40;1.00
15241;DHT22;7723;52.170;9.978;2023-02-28T12:18:02;4.40;1.00
15241;DHT22;7723;52.170;9.978;2023-02-28T12:20:36;4.30;1.00
15241;DHT22;7723;52.170;9.978;2023-02-28T12:23:26;4.20;1.00
15241;DHT22;7723;52.170;9.978;2023-02-28T12:26:05;4.20;1.00
15241;DHT22;7723;52.170;9.978;2023-02-28T12:28:40;4.30;1.00
15241;DHT22;7723;52.170;9.978;2023-02-28T12:31:14;4.50;1.00
15241;DHT22;7723;52.170;9.978;2023-02-28T12:33:47;4.50;1.00
15241;DHT22;7723;52.170;9.978;2023-02-28T12:36:17;4.60;1.00
15241;DHT22;7723;52.170;9.978;2023-02-28T12:38:50;4.70;1.00
15241;DHT22;7723;52.170;9.978;2023-02-28T12:41:24;4.80;1.00
15241;DHT22;7723;52.170;9.978;2023-02-28T12:43:58;4.80;1.00
15241;DHT22;7723;52.170;9.978;2023-02-28T12:46:30;4.80;1.00
15241;DHT22;7723;52.170;9.978;2023-02-28T12:49:04;4.80;1.00
15241;DHT22;7723;52.170;9.978;2023-02-28T12:51:35;4.70;1.00
15241;DHT22;7723;52.170;9.978;2023-02-28T12:54:10;4.50;1.00
15241;DHT22;7723;52.170;9.978;2023-02-28T12:56:45;4.50;1.00
15241;DHT22;7723;52.170;9.978;2023-02-28T12:59:23;4.60;1.00
15241;DHT22;7723;52.170;9.978;2023-02-28T13:02:02;4.70;1.00
15241;DHT22;7723;52.170;9.978;2023-02-28T13:04:50;4.80;1.00
15241;DHT22;7723;52.170;9.978;2023-02-28T13:10:19;4.80;1.00
15241;DHT22;7723;52.170;9.978;2023-02-28T13:12:48;4.70;1.00
15241;DHT22;7723;52.170;9.978;2023-02-28T13:15:20;4.80;1.00
15241;DHT22;7723;52.170;9.978;2023-02-28T13:17:52;4.70;1.00
15241;DHT22;7723;52.170;9.978;2023-02-28T13:20:21;4.80;1.00
15241;DHT22;7723;52.170;9.978;2023-02-28T13:22:51;4.70;1.00
15241;DHT22;7723;52.170;9.978;2023-02-28T13:25:52;4.80;1.00
15241;DHT22;7723;52.170;9.978;2023-02-28T13:28:59;4.90;1.00
15241;DHT22;7723;52.170;9.978;2023-02-28T13:31:28;4.80;1.00
15241;DHT22;7723;52.170;9.978;2023-02-28T13:34:12;4.80;1.00
15241;DHT22;7723;52.170;9.978;2023-02-28T13:36:40;4.80;1.00
15241;DHT22;7723;52.170;9.978;2023-02-28T13:42:24;5.10;1.00
15241;DHT22;7723;52.170;9.978;2023-02-28T13:45:25;4.70;1.00
15241;DHT22;7723;52.170;9.978;2023-02-28T13:47:56;4.70;1.00
15241;DHT22;7723;52.170;9.978;2023-02-28T13:50:31;4.70;1.00
15241;DHT22;7723;52.170;9.978;2023-02-28T13:55:52;4.60;1.00
15241;DHT22;7723;52.170;9.978;2023-02-28T13:58:39;4.70;1.00
15241;DHT22;7723;52.170;9.978;2023-02-28T14:01:17;4.80;1.00
15241;DHT22;7723;52.170;9.978;2023-02-28T14:04:09;4.90;1.00
15241;DHT22;7723;52.170;9.978;2023-02-28T14:06:47;4.90;1.00
15241;DHT22;7723;52.170;9.978;2023-02-28T14:09:21;4.80;1.00
15241;DHT22;7723;52.170;9.978;2023-02-28T14:11:50;4.80;1.00
15241;DHT22;7723;52.170;9.978;2023-02-28T14:14:55;4.70;1.00
15241;DHT22;7723;52.170;9.978;2023-02-28T14:17:24;4.80;1.00
15241;DHT22;7723;52.170;9.978;2023-02-28T14:19:54;4.80;1.00
15241;DHT22;7723;52.170;9.978;2023-02-28T14:22:44;4.70;1.00
15241;DHT22;7723;52.170;9.978;2023-02-28T14:25:21;4.80;1.00
15241;DHT22;7723;52.170;9.978;2023-02-28T14:27:56;4.80;1.00
15241;DHT22;7723;52.170;9.978;2023-02-28T14:30:45;4.90;1.00
15241;DHT22;7723;52.170;9.978;2023-02-28T14:33:27;4.80;1.00
15241;DHT22;7723;52.170;9.978;2023-02-28T14:36:08;4.70;1.00
15241;DHT22;7723;52.170;9.978;2023-02-28T14:38:42;4.70;1.00
15241;DHT22;7723;52.170;9.978;2023-02-28T14:41:21;4.70;1.00
15241;DHT22;7723;52.170;9.978;2023-02-28T14:43:51;4.70;1.00
15241;DHT22;7723;52.170;9.978;2023-02-28T14:46:19;4.60;1.00
15241;DHT22;7723;52.170;9.978;2023-02-28T14:48:47;4.60;1.00
15241;DHT22;7723;52.170;9.978;2023-02-28T14:51:20;4.60;1.00
15241;DHT22;7723;52.170;9.978;2023-02-28T14:53:51;4.70;1.00
15241;DHT22;7723;52.170;9.978;2023-02-28T14:56:24;4.70;1.00
15241;DHT22;7723;52.170;9.978;2023-02-28T14:58:54;4.60;1.00
15241;DHT22;7723;52.170;9.978;2023-02-28T15:01:23;4.60;1.00
15241;DHT22;7723;52.170;9.978;2023-02-28T15:03:58;4.70;1.00
15241;DHT22;7723;52.170;9.978;2023-02-28T15:06:29;4.60;1.00
15241;DHT22;7723;52.170;9.978;2023-02-28T15:09:10;4.50;1.00
15241;DHT22;7723;52.170;9.978;2023-02-28T15:11:39;4.60;1.00
15241;DHT22;7723;52.170;9.978;2023-02-28T15:14:06;5.90;1.00
15241;DHT22;7723;52.170;9.978;2023-02-28T15:16:37;4.50;1.00
15241;DHT22;7723;52.170;9.978;2023-02-28T15:19:07;4.50;1.00
15241;DHT22;7723;52.170;9.978;2023-02-28T15:21:43;4.40;1.00
15241;DHT22;7723;52.170;9.978;2023-02-28T15:24:15;4.40;1.00
15241;DHT22;7723;52.170;9.978;2023-02-28T15:26:53;4.30;1.00
15241;DHT22;7723;52.170;9.978;2023-02-28T15:29:23;4.20;1.00
15241;DHT22;7723;52.170;9.978;2023-02-28T15:31:52;4.20;1.00
15241;DHT22;7723;52.170;9.978;2023-02-28T15:34:25;4.20;1.00
15241;DHT22;7723;52.170;9.978;2023-02-28T15:36:55;4.20;1.00
15241;DHT22;7723;52.170;9.978;2023-02-28T15:39:24;4.20;1.00
15241;DHT22;7723;52.170;9.978;2023-02-28T15:42:09;4.20;1.00
15241;DHT22;7723;52.170;9.978;2023-02-28T15:44:37;4.20;1.00
15241;DHT22;7723;52.170;9.978;2023-02-28T15:47:05;4.10;1.00
15241;DHT22;7723;52.170;9.978;2023-02-28T15:49:39;4.10;1.00
15241;DHT22;7723;52.170;9.978;2023-02-28T15:52:13;4.00;1.00
15241;DHT22;7723;52.170;9.978;2023-02-28T15:54:41;4.00;1.00
15241;DHT22;7723;52.170;9.978;2023-02-28T15:57:13;4.00;1.00
15241;DHT22;7723;52.170;9.978;2023-02-28T15:59:49;3.90;1.00
15241;DHT22;7723;52.170;9.978;2023-02-28T16:02:19;3.90;1.00
15241;DHT22;7723;52.170;9.978;2023-02-28T16:04:58;3.90;1.00
15241;DHT22;7723;52.170;9.978;2023-02-28T16:07:27;3.90;1.00
15241;DHT22;7723;52.170;9.978;2023-02-28T16:09:55;3.80;1.00
15241;DHT22;7723;52.170;9.978;2023-02-28T16:12:26;3.70;1.00
15241;DHT22;7723;52.170;9.978;2023-02-28T16:14:55;3.70;1.00
15241;DHT22;7723;52.170;9.978;2023-02-28T16:17:25;3.70;1.00
15241;DHT22;7723;52.170;9.978;2023-02-28T16:19:53;3.70;1.00
15241;DHT22;7723;52.170;9.978;2023-02-28T16:22:20;3.60;1.00
15241;DHT22;7723;52.170;9.978;2023-02-28T16:24:49;3.60;1.00
15241;DHT22;7723;52.170;9.978;2023-02-28T16:27:19;3.50;1.00
15241;DHT22;7723;52.170;9.978;2023-02-28T16:29:47;3.40;1.00
15241;DHT22;7723;52.170;9.978;2023-02-28T16:32:15;3.30;1.00
15241;DHT22;7723;52.170;9.978;2023-02-28T16:34:43;3.30;1.00
15241;DHT22;7723;52.170;9.978;2023-02-28T16:37:12;3.20;1.00
15241;DHT22;7723;52.170;9.978;2023-02-28T16:39:40;3.20;1.00